Time;durP1;ratioP1;P1;durP2;ratioP2;P2;SDS_P1;SDS_P2;PMS_P1;PMS_P2;Temp;Humidity;BMP_temperature;BMP_pressure;BME280_temperature;BME280_humidity;BME280_pressure;Samples;Min_cycle;Max_cycle;Signal;HPM_P1;HPM_P2
2023/09/29 00:00:55;;;;;;;;;6.25;4.25;;;;;21.70;67.48;101179.84;5057877;28;47002;-51
2023/09/29 00:03:20;;;;;;;;;5.25;4.25;;;;;21.61;67.41;101164.84;5057803;28;45398;-52
2023/09/29 00:05:46;;;;;;;;;6.00;5.00;;;;;21.67;67.59;101172.97;5057907;28;45946;-57
2023/09/29 00:08:16;;;;;;;;;6.00;6.00;;;;;21.75;67.49;101169.22;5057848;28;45225;-47
2023/09/29 00:10:45;;;;;;;;;6.20;4.80;;;;;21.74;67.09;101172.94;5057957;28;46922;-55
2023/09/29 00:13:11;;;;;;;;;6.40;5.00;;;;;21.73;67.35;101173.16;5057801;28;45222;-52
2023/09/29 00:15:38;;;;;;;;;7.60;5.00;;;;;21.64;67.67;101161.72;5057914;28;45356;-52
2023/09/29 00:18:10;;;;;;;;;6.25;4.50;;;;;21.67;67.84;101164.84;5058068;28;45485;-57
2023/09/29 00:20:35;;;;;;;;;4.80;4.80;;;;;21.56;67.84;101143.81;5057427;28;45385;-55
2023/09/29 00:23:01;;;;;;;;;5.75;5.00;;;;;21.68;67.45;101152.97;5057687;28;45315;-43
2023/09/29 00:25:28;;;;;;;;;4.50;4.50;;;;;21.70;68.32;101154.63;5057748;28;45208;-45
2023/09/29 00:27:55;;;;;;;;;5.00;5.00;;;;;21.70;67.74;101157.31;5057840;28;45409;-51
2023/09/29 00:30:20;;;;;;;;;4.80;4.80;;;;;21.70;67.83;101151.91;5057785;28;46087;-57
2023/09/29 00:32:53;;;;;;;;;7.75;4.50;;;;;21.67;67.66;101150.47;5057534;28;45410;-53
2023/09/29 00:35:29;;;;;;;;;5.60;5.00;;;;;21.69;68.21;101151.09;5057868;28;45419;-56
2023/09/29 00:37:55;;;;;;;;;6.75;6.75;;;;;21.52;68.41;101123.59;5057863;28;45336;-51
2023/09/29 00:40:22;;;;;;;;;5.60;5.60;;;;;21.66;68.19;101148.81;5057417;28;45357;-56
2023/09/29 00:42:48;;;;;;;;;8.60;6.20;;;;;21.66;68.40;101149.66;5057576;28;45506;-48
2023/09/29 00:45:20;;;;;;;;;6.60;6.60;;;;;21.60;68.27;101139.63;5057421;28;45358;-43
2023/09/29 00:47:49;;;;;;;;;6.25;5.00;;;;;21.64;68.32;101140.06;5056558;28;45780;-49
2023/09/29 00:50:15;;;;;;;;;6.80;6.20;;;;;21.67;68.56;101148.59;5056003;28;47195;-45
2023/09/29 00:52:42;;;;;;;;;5.00;4.75;;;;;21.69;68.60;101151.09;5056899;28;45395;-50
2023/09/29 00:55:15;;;;;;;;;6.00;6.00;;;;;21.71;68.87;101153.59;5056952;28;45464;-48
2023/09/29 00:57:42;;;;;;;;;6.25;5.00;;;;;21.71;68.42;101145.47;5057483;28;45336;-51
2023/09/29 01:00:18;;;;;;;;;7.00;5.25;;;;;21.71;68.21;101149.00;5056886;28;46192;-51
2023/09/29 01:02:44;;;;;;;;;6.20;5.80;;;;;21.74;68.67;101132.31;5056291;28;45506;-55
2023/09/29 01:05:12;;;;;;;;;7.25;6.25;;;;;21.76;68.06;101132.13;5056559;28;45473;-49
2023/09/29 01:07:41;;;;;;;;;5.50;5.50;;;;;21.75;68.55;101116.94;5056106;28;45666;-51
2023/09/29 01:10:07;;;;;;;;;6.00;4.80;;;;;21.65;68.64;101096.50;5056142;28;45714;-44
2023/09/29 01:12:34;;;;;;;;;6.00;5.00;;;;;21.72;68.29;101109.22;5056967;28;45411;-48
2023/09/29 01:14:59;;;;;;;;;6.60;6.60;;;;;21.69;68.33;101113.19;5055437;28;45554;-50
2023/09/29 01:17:25;;;;;;;;;10.50;7.00;;;;;21.50;68.61;101066.16;5057301;28;45471;-49
2023/09/29 01:19:51;;;;;;;;;7.75;6.50;;;;;21.63;68.70;101095.91;5056816;28;45610;-53
2023/09/29 01:22:17;;;;;;;;;7.80;6.00;;;;;21.63;69.04;101095.91;5056795;28;45459;-51
2023/09/29 01:24:44;;;;;;;;;5.25;5.25;;;;;21.64;68.96;101100.28;5056761;28;45770;-46
2023/09/29 01:27:09;;;;;;;;;12.50;7.00;;;;;21.65;68.89;101092.97;5057101;28;45320;-52
2023/09/29 01:29:35;;;;;;;;;6.50;4.00;;;;;21.64;69.17;101102.16;5056778;28;46135;-50
2023/09/29 01:32:01;;;;;;;;;6.50;6.00;;;;;21.61;68.89;101097.16;5056555;28;49270;-47
2023/09/29 01:34:31;;;;;;;;;5.00;5.00;;;;;21.61;67.43;101099.84;5055749;28;45237;-47
2023/09/29 01:36:59;;;;;;;;;5.50;4.50;;;;;21.59;68.87;101099.25;5056372;28;45482;-53
2023/09/29 01:39:25;;;;;;;;;5.80;5.80;;;;;21.58;68.53;101105.72;5055320;28;45453;-48
2023/09/29 01:41:51;;;;;;;;;5.00;5.00;;;;;21.58;68.70;101108.44;5056374;28;45390;-51
2023/09/29 01:44:16;;;;;;;;;5.50;5.50;;;;;21.59;69.44;101100.09;5056451;28;45261;-47
2023/09/29 01:46:42;;;;;;;;;7.25;5.50;;;;;21.58;68.02;101093.00;5056718;28;45330;-55
2023/09/29 01:49:07;;;;;;;;;4.00;4.00;;;;;21.51;68.79;101094.06;5056223;28;47506;-52
2023/09/29 01:51:32;;;;;;;;;4.50;4.50;;;;;21.57;67.40;101110.28;5056455;28;45502;-53
2023/09/29 01:53:59;;;;;;;;;6.00;4.50;;;;;21.58;68.57;101109.25;5056451;28;45307;-52
2023/09/29 01:56:24;;;;;;;;;3.00;3.00;;;;;21.59;68.39;101110.09;5056395;28;45340;-53
2023/09/29 01:58:49;;;;;;;;;5.50;5.50;;;;;21.59;67.57;101105.50;5056180;28;45206;-50
2023/09/29 02:01:15;;;;;;;;;5.00;5.00;;;;;21.58;68.28;101103.84;5055807;28;45433;-53
2023/09/29 02:03:49;;;;;;;;;9.75;5.00;;;;;21.58;67.18;101100.31;5056061;28;45387;-55
2023/09/29 02:06:15;;;;;;;;;6.75;5.00;;;;;21.46;68.24;101086.56;5055619;28;45608;-51
2023/09/29 02:08:42;;;;;;;;;5.20;3.40;;;;;21.58;67.97;101105.72;5055911;28;45469;-48
2023/09/29 02:11:08;;;;;;;;;4.20;4.20;;;;;21.58;68.30;101103.84;5056020;28;45434;-55
2023/09/29 02:13:34;;;;;;;;;5.75;4.25;;;;;21.55;68.24;101093.41;5056212;28;45343;-46
2023/09/29 02:16:00;;;;;;;;;3.25;3.25;;;;;21.57;67.79;101106.75;5056217;28;45304;-57
2023/09/29 02:18:27;;;;;;;;;4.20;3.00;;;;;21.57;67.81;101106.75;5055800;28;46186;-51
2023/09/29 02:20:55;;;;;;;;;5.60;4.80;;;;;21.57;67.94;101107.56;5056072;28;45727;-51
2023/09/29 02:23:22;;;;;;;;;5.20;5.20;;;;;21.56;67.45;101108.63;5056075;28;45399;-48
2023/09/29 02:25:48;;;;;;;;;4.75;3.50;;;;;21.54;68.00;101113.41;5056432;28;45781;-47
2023/09/29 02:28:13;;;;;;;;;4.50;4.50;;;;;21.50;67.21;101114.06;5055831;28;46761;-49
2023/09/29 02:30:40;;;;;;;;;8.00;6.20;;;;;21.40;67.79;101107.16;5055597;28;45357;-55
2023/09/29 02:33:06;;;;;;;;;6.50;5.00;;;;;21.43;66.93;101114.03;5055994;28;45373;-44
2023/09/29 02:35:31;;;;;;;;;6.00;4.00;;;;;21.38;67.95;101113.84;5055767;28;45375;-48
2023/09/29 02:37:57;;;;;;;;;4.00;4.00;;;;;21.35;67.71;101120.50;5055337;28;46073;-47
2023/09/29 02:40:23;;;;;;;;;8.25;6.00;;;;;21.34;68.05;101116.13;5055852;28;45312;-48
2023/09/29 02:42:49;;;;;;;;;4.80;4.00;;;;;21.32;68.17;101112.81;5055926;28;45464;-43
2023/09/29 02:45:14;;;;;;;;;4.75;4.75;;;;;21.34;68.31;101118.00;5056048;28;45387;-46
2023/09/29 02:47:41;;;;;;;;;3.75;3.75;;;;;21.18;67.58;101081.34;5055426;28;46246;-48
2023/09/29 02:50:09;;;;;;;;;5.00;3.80;;;;;21.27;67.34;101101.72;5055586;28;45398;-56
2023/09/29 02:52:35;;;;;;;;;4.60;4.60;;;;;21.25;67.26;101108.41;5055356;28;45383;-48
2023/09/29 02:55:00;;;;;;;;;3.75;3.75;;;;;21.25;67.50;101103.00;5037826;28;45571;-48
2023/09/29 02:57:26;;;;;;;;;4.00;3.00;;;;;21.25;66.91;101101.13;5055234;28;46271;-48
2023/09/29 02:59:51;;;;;;;;;4.25;3.75;;;;;21.24;68.02;101098.59;5037708;28;45360;-46
2023/09/29 03:02:16;;;;;;;;;4.00;4.00;;;;;21.23;67.41;101107.78;5055531;28;45511;-47
2023/09/29 03:04:43;;;;;;;;;5.00;3.00;;;;;21.21;67.62;101104.44;5055528;28;45379;-45
2023/09/29 03:07:09;;;;;;;;;3.80;3.80;;;;;21.09;67.87;101102.34;5055191;28;47232;-52
2023/09/29 03:09:35;;;;;;;;;3.00;3.00;;;;;21.20;68.00;101121.72;5055064;28;45493;-49
2023/09/29 03:12:01;;;;;;;;;1.75;1.75;;;;;21.16;68.14;101122.13;5055556;28;45470;-51
2023/09/29 03:14:26;;;;;;;;;2.00;2.00;;;;;21.19;67.99;101126.28;5058730;28;45537;-52
2023/09/29 03:16:54;;;;;;;;;2.00;2.00;;;;;21.12;68.44;101099.25;5058642;28;46113;-49
2023/09/29 03:19:20;;;;;;;;;4.00;2.80;;;;;21.14;68.52;101110.69;5058748;28;45320;-48
2023/09/29 03:21:48;;;;;;;;;4.20;4.00;;;;;21.13;68.26;101111.72;5058793;28;45264;-45
2023/09/29 03:24:14;;;;;;;;;4.00;4.00;;;;;21.09;68.19;101099.66;5059064;28;45339;-53
2023/09/29 03:26:39;;;;;;;;;2.75;2.75;;;;;21.09;68.30;101110.47;5058372;28;46513;-49
2023/09/29 03:29:04;;;;;;;;;2.50;2.50;;;;;21.05;68.62;101102.97;5058478;28;45539;-51
2023/09/29 03:31:30;;;;;;;;;3.00;2.00;;;;;21.02;68.43;101111.50;5058583;28;45492;-53
2023/09/29 03:33:55;;;;;;;;;2.50;2.50;;;;;20.87;69.10;101096.31;5058679;28;45436;-52
2023/09/29 03:36:20;;;;;;;;;3.00;3.00;;;;;20.99;68.55;101120.88;5058090;28;51302;-48
2023/09/29 03:38:46;;;;;;;;;2.75;2.25;;;;;20.96;68.48;101118.56;5058014;28;45281;-53
2023/09/29 03:41:12;;;;;;;;;3.00;3.00;;;;;20.93;68.88;101117.09;5058428;28;45405;-46
2023/09/29 03:43:38;;;;;;;;;2.00;2.00;;;;;20.91;69.18;101118.38;5058331;28;45451;-49
2023/09/29 03:46:04;;;;;;;;;2.60;2.60;;;;;20.88;69.41;101110.66;5057332;28;46177;-52
2023/09/29 03:48:29;;;;;;;;;4.00;3.00;;;;;20.86;69.11;101112.75;5057114;28;45291;-50
2023/09/29 03:50:55;;;;;;;;;3.25;3.25;;;;;20.81;69.60;101112.50;5058226;28;45213;-52
2023/09/29 03:53:21;;;;;;;;;5.00;3.25;;;;;20.75;69.75;101108.75;5058501;28;45387;-52
2023/09/29 03:55:47;;;;;;;;;1.40;1.40;;;;;20.76;70.27;101125.81;5057947;28;46391;-48
2023/09/29 03:58:14;;;;;;;;;3.00;3.00;;;;;20.72;69.88;101119.16;5058096;28;45704;-47
2023/09/29 04:00:40;;;;;;;;;3.00;3.00;;;;;20.67;69.86;101108.94;5058121;28;45702;-46
2023/09/29 04:03:06;;;;;;;;;3.50;2.75;;;;;20.64;70.82;101112.88;5058329;28;45435;-49
2023/09/29 04:05:32;;;;;;;;;9.25;2.00;;;;;20.60;70.44;101117.03;5057911;28;45476;-49
2023/09/29 04:07:57;;;;;;;;;2.00;2.00;;;;;20.59;70.45;101115.38;5057878;28;45370;-47
2023/09/29 04:10:23;;;;;;;;;3.25;3.25;;;;;20.58;70.32;101116.41;5057937;28;45430;-44
2023/09/29 04:12:49;;;;;;;;;2.75;2.00;;;;;20.55;70.74;101119.50;5058239;28;45288;-48
2023/09/29 04:15:15;;;;;;;;;5.60;3.00;;;;;20.53;71.00;101118.91;5057820;28;46459;-50
2023/09/29 04:17:41;;;;;;;;;2.25;2.25;;;;;20.52;71.32;101135.28;5057719;28;45321;-48
2023/09/29 04:20:07;;;;;;;;;7.00;4.00;;;;;20.50;70.19;101146.31;5057968;28;45375;-48
2023/09/29 04:22:33;;;;;;;;;3.25;3.00;;;;;20.41;71.57;101153.75;5057816;28;45224;-49
2023/09/29 04:24:59;;;;;;;;;4.50;4.00;;;;;20.52;71.35;101179.41;5057479;28;46418;-48
2023/09/29 04:27:24;;;;;;;;;4.00;4.00;;;;;20.58;71.35;101183.97;5057785;28;45174;-50
2023/09/29 04:29:51;;;;;;;;;3.50;3.00;;;;;20.60;71.33;101187.31;5057843;28;45513;-47
2023/09/29 04:32:17;;;;;;;;;3.80;3.80;;;;;20.64;71.51;101193.16;5057753;28;45469;-48
2023/09/29 04:34:43;;;;;;;;;5.20;2.80;;;;;20.66;70.70;101182.97;5057175;28;47235;-52
2023/09/29 04:37:08;;;;;;;;;6.25;3.00;;;;;20.63;71.03;101170.69;5056327;28;45411;-47
2023/09/29 04:39:34;;;;;;;;;5.50;4.00;;;;;20.67;70.71;101182.75;5056914;28;45442;-50
2023/09/29 04:41:59;;;;;;;;;3.00;3.00;;;;;20.68;70.61;101180.91;5056211;28;45478;-50
2023/09/29 04:44:25;;;;;;;;;3.50;3.50;;;;;20.67;71.14;101192.75;5056760;28;46160;-53
2023/09/29 04:46:50;;;;;;;;;5.75;5.00;;;;;20.66;71.60;101189.22;5056936;28;45286;-51
2023/09/29 04:49:16;;;;;;;;;5.75;4.00;;;;;20.60;70.84;101181.06;5057022;28;45695;-50
2023/09/29 04:51:43;;;;;;;;;4.50;3.00;;;;;20.62;71.16;101179.84;5057555;28;45849;-53
2023/09/29 04:54:10;;;;;;;;;2.80;2.80;;;;;20.71;71.40;101190.47;5056939;28;47033;-45
2023/09/29 04:56:35;;;;;;;;;4.40;2.60;;;;;20.74;70.75;101190.09;5057060;28;45985;-49
2023/09/29 04:59:01;;;;;;;;;6.25;4.50;;;;;20.70;70.90;101178.84;5057051;28;45416;-49
2023/09/29 05:01:27;;;;;;;;;2.00;2.00;;;;;20.78;70.72;101184.06;5057401;28;45400;-52
2023/09/29 05:03:52;;;;;;;;;5.00;5.00;;;;;20.79;70.63;101190.31;5056932;28;45387;-51
2023/09/29 05:06:17;;;;;;;;;4.75;4.00;;;;;20.67;70.54;101157.59;5056783;28;50958;-52
2023/09/29 05:08:44;;;;;;;;;4.50;3.00;;;;;20.79;70.21;101196.53;5056992;28;45538;-52
2023/09/29 05:11:22;;;;;;;;;9.25;5.25;;;;;20.78;69.66;101200.28;5057325;28;45373;-50
2023/09/29 05:13:48;;;;;;;;;6.80;5.60;;;;;20.80;70.24;101192.78;5056708;28;46248;-52
2023/09/29 05:16:14;;;;;;;;;7.40;3.80;;;;;20.80;69.09;101190.09;5056832;28;45409;-46
2023/09/29 05:18:40;;;;;;;;;3.25;3.25;;;;;20.80;69.68;101197.38;5056796;28;45420;-49
2023/09/29 05:21:05;;;;;;;;;4.75;4.25;;;;;20.79;69.94;101195.72;5055865;28;45463;-50
2023/09/29 05:23:31;;;;;;;;;6.75;4.00;;;;;20.78;69.92;101202.16;5056594;28;47051;-52
2023/09/29 05:25:56;;;;;;;;;9.00;4.75;;;;;20.78;70.15;101208.41;5056624;28;45379;-49
2023/09/29 05:28:21;;;;;;;;;4.50;4.50;;;;;20.68;70.13;101200.66;5056989;28;45224;-52
2023/09/29 05:30:54;;;;;;;;;5.75;4.00;;;;;20.77;70.40;101214.00;5056778;28;45376;-51
2023/09/29 05:33:19;;;;;;;;;6.50;5.75;;;;;20.77;69.97;101222.09;5056629;28;46157;-46
2023/09/29 05:35:46;;;;;;;;;5.50;5.00;;;;;20.77;70.17;101230.22;5055908;28;45354;-49
2023/09/29 05:38:11;;;;;;;;;9.40;3.00;;;;;20.77;70.12;101225.63;5056114;28;45379;-46
2023/09/29 05:40:38;;;;;;;;;6.00;4.00;;;;;20.77;70.15;101230.22;5056775;28;45396;-48
2023/09/29 05:43:04;;;;;;;;;8.40;4.60;;;;;20.80;69.49;101232.53;5056452;28;45402;-43
2023/09/29 05:45:29;;;;;;;;;10.00;4.40;;;;;20.66;70.03;101207.31;5056269;28;45402;-48
2023/09/29 05:47:56;;;;;;;;;4.00;1.00;;;;;20.84;69.61;101239.19;5056599;28;45430;-48
2023/09/29 05:50:21;;;;;;;;;6.75;3.75;;;;;20.87;69.65;101245.03;5056596;28;45388;-43
2023/09/29 05:52:47;;;;;;;;;9.00;5.50;;;;;20.77;69.87;101235.63;5055985;28;46553;-46
2023/09/29 05:55:13;;;;;;;;;5.50;4.25;;;;;20.81;69.44;101242.28;5056162;28;45316;-43
2023/09/29 05:57:38;;;;;;;;;7.25;4.00;;;;;20.90;69.15;101249.22;5055967;28;45582;-46
2023/09/29 06:00:04;;;;;;;;;8.25;7.00;;;;;20.93;69.50;101254.19;5056694;28;45487;-48
2023/09/29 06:02:30;;;;;;;;;7.80;5.60;;;;;20.94;68.24;101247.75;5055905;28;46953;-51
2023/09/29 06:04:55;;;;;;;;;8.00;5.00;;;;;20.92;68.41;101255.25;5055786;28;46052;-50
2023/09/29 06:07:21;;;;;;;;;12.00;6.00;;;;;20.91;68.35;101254.41;5056067;28;45406;-49
2023/09/29 06:09:46;;;;;;;;;7.75;6.25;;;;;20.83;68.47;101251.06;5055941;28;45462;-54
2023/09/29 06:12:12;;;;;;;;;6.00;4.25;;;;;20.90;68.38;101271.69;5055858;28;45402;-50
2023/09/29 06:14:37;;;;;;;;;12.50;4.75;;;;;20.91;68.55;101277.91;5055662;28;45407;-50
2023/09/29 06:17:03;;;;;;;;;7.00;5.00;;;;;20.96;68.48;101266.50;5055688;28;45362;-50
2023/09/29 06:19:28;;;;;;;;;6.75;5.00;;;;;20.98;67.64;101277.94;5055053;28;45366;-54
2023/09/29 06:21:54;;;;;;;;;12.75;5.50;;;;;20.98;68.17;101267.13;5055564;28;45453;-50
2023/09/29 06:24:19;;;;;;;;;7.00;5.50;;;;;21.01;67.89;101274.84;5037482;28;45450;-51
2023/09/29 06:26:44;;;;;;;;;10.25;6.25;;;;;21.04;67.75;101283.38;5055824;28;45433;-57
2023/09/29 06:29:09;;;;;;;;;12.50;6.00;;;;;21.06;66.91;101286.69;5037584;28;45599;-53
2023/09/29 06:31:35;;;;;;;;;7.25;6.75;;;;;21.10;67.20;101285.25;5055609;28;45475;-48
2023/09/29 06:34:00;;;;;;;;;11.00;6.75;;;;;21.14;66.68;101283.00;5055342;28;45530;-55
2023/09/29 06:36:25;;;;;;;;;11.00;7.00;;;;;21.17;66.55;101285.28;5055395;28;45619;-52
2023/09/29 06:38:51;;;;;;;;;12.00;7.00;;;;;21.22;65.69;101292.81;5055565;28;45236;-42
2023/09/29 06:41:16;;;;;;;;;7.75;5.50;;;;;21.24;66.01;101298.81;5055095;28;48966;-50
2023/09/29 06:43:43;;;;;;;;;11.00;7.75;;;;;21.28;65.18;101294.69;5055397;28;45375;-50
2023/09/29 06:46:08;;;;;;;;;12.80;7.20;;;;;21.28;64.85;101300.09;5055336;28;45362;-53
2023/09/29 06:48:33;;;;;;;;;13.50;9.25;;;;;21.35;64.90;101309.09;5057694;28;45408;-53
2023/09/29 06:50:59;;;;;;;;;9.75;8.00;;;;;21.40;64.90;101309.31;5040681;28;45318;-47
2023/09/29 06:53:26;;;;;;;;;13.75;10.00;;;;;21.39;64.66;101299.53;5057902;28;45306;-48
2023/09/29 06:55:52;;;;;;;;;11.20;7.00;;;;;21.45;64.36;101319.53;5059000;28;45493;-48
2023/09/29 06:58:17;;;;;;;;;12.25;5.25;;;;;21.50;64.18;101317.91;5058042;28;45431;-49
2023/09/29 07:00:44;;;;;;;;;6.25;5.25;;;;;21.53;64.28;101324.75;5058684;28;46365;-46
2023/09/29 07:03:12;;;;;;;;;10.80;6.80;;;;;21.57;63.80;101339.56;5058588;28;45431;-47
2023/09/29 07:05:38;;;;;;;;;6.60;5.00;;;;;21.49;63.68;101328.91;5058963;28;45293;-47
2023/09/29 07:08:04;;;;;;;;;14.00;5.20;;;;;21.54;63.47;101342.69;5059057;28;45382;-46
2023/09/29 07:10:29;;;;;;;;;9.25;4.50;;;;;21.53;63.55;101351.81;5058571;28;46017;-48
2023/09/29 07:12:55;;;;;;;;;9.50;4.75;;;;;21.53;63.86;101366.22;5058517;28;45351;-48
2023/09/29 07:15:20;;;;;;;;;7.50;2.00;;;;;21.52;63.47;101367.25;5058831;28;45664;-51
2023/09/29 07:17:45;;;;;;;;;11.50;8.00;;;;;21.52;63.77;101375.34;5056813;28;46090;-51
2023/09/29 07:20:12;;;;;;;;;7.00;4.75;;;;;21.51;63.73;101378.28;5058482;28;46988;-43
2023/09/29 07:22:38;;;;;;;;;8.60;7.80;;;;;21.53;63.85;101387.03;5058280;28;45446;-41
2023/09/29 07:25:03;;;;;;;;;10.25;4.75;;;;;21.14;63.84;101319.00;5057505;28;45581;-48
2023/09/29 07:27:30;;;;;;;;;5.50;5.50;;;;;21.48;63.80;101384.94;5058493;28;45404;-48
2023/09/29 07:29:56;;;;;;;;;11.20;5.60;;;;;21.58;63.82;101395.41;5056999;28;46379;-52
2023/09/29 07:32:21;;;;;;;;;10.75;4.75;;;;;21.59;63.73;101397.06;5057105;28;45252;-49
2023/09/29 07:34:47;;;;;;;;;7.00;2.25;;;;;21.62;63.45;101402.91;5058125;28;45304;-51
2023/09/29 07:37:12;;;;;;;;;5.50;4.00;;;;;21.64;63.72;101395.41;5040396;28;45517;-46
2023/09/29 07:39:37;;;;;;;;;9.25;5.00;;;;;21.72;63.50;101409.78;5057962;28;47065;-46
2023/09/29 07:42:03;;;;;;;;;6.75;4.25;;;;;21.74;63.16;101408.53;5057909;28;45432;-52
2023/09/29 07:44:28;;;;;;;;;3.50;2.75;;;;;21.82;63.27;101412.94;5058232;28;45588;-54
2023/09/29 07:46:53;;;;;;;;;4.50;3.75;;;;;21.85;63.22;101426.06;5058276;28;45491;-54
2023/09/29 07:49:20;;;;;;;;;6.50;4.00;;;;;21.83;63.36;101425.47;5058200;28;46187;-56
2023/09/29 07:51:45;;;;;;;;;6.20;4.00;;;;;21.80;63.24;101429.41;5055636;28;45617;-53
2023/09/29 07:54:11;;;;;;;;;6.00;5.00;;;;;21.77;63.65;101442.50;5058013;28;45434;-52
2023/09/29 07:56:36;;;;;;;;;6.75;3.00;;;;;21.73;63.49;101438.53;5055314;28;45794;-50
2023/09/29 07:59:02;;;;;;;;;4.25;3.00;;;;;21.71;63.64;101444.16;5057103;28;50217;-55
2023/09/29 08:01:27;;;;;;;;;7.00;3.25;;;;;21.68;64.03;101449.97;5039919;28;45424;-52
2023/09/29 08:03:53;;;;;;;;;7.00;4.25;;;;;21.68;64.00;101458.94;5057995;28;45334;-53
2023/09/29 08:06:21;;;;;;;;;3.75;3.75;;;;;21.71;64.11;101476.66;5057781;28;45517;-45
2023/09/29 08:08:47;;;;;;;;;4.80;3.00;;;;;21.69;63.58;101470.59;5055202;28;46211;-52
2023/09/29 08:11:13;;;;;;;;;3.75;2.00;;;;;21.74;63.66;101470.81;5054776;28;46435;-53
2023/09/29 08:13:39;;;;;;;;;6.25;3.50;;;;;21.80;63.34;101480.03;5055117;28;45901;-48
2023/09/29 08:16:04;;;;;;;;;3.00;1.25;;;;;21.80;63.92;101480.03;5055189;28;45701;-54
2023/09/29 08:18:29;;;;;;;;;5.00;2.00;;;;;21.86;63.64;101488.16;5051875;28;46148;-46
2023/09/29 08:20:54;;;;;;;;;5.00;1.25;;;;;21.91;63.24;101493.84;5054727;28;45446;-48
2023/09/29 08:23:20;;;;;;;;;2.25;1.75;;;;;21.95;63.32;101488.81;5054611;28;45469;-54
2023/09/29 08:25:46;;;;;;;;;4.00;2.00;;;;;21.96;63.38;101486.97;5053994;28;46035;-51
2023/09/29 08:28:13;;;;;;;;;6.00;3.60;;;;;22.06;63.34;101490.94;5053847;28;45407;-56
2023/09/29 08:30:39;;;;;;;;;2.00;1.00;;;;;22.07;63.26;101500.72;5054438;28;45592;-53
2023/09/29 08:33:04;;;;;;;;;0.25;0.25;;;;;22.07;63.19;101516.16;5054672;28;45529;-52
2023/09/29 08:35:30;;;;;;;;;6.25;2.00;;;;;22.01;63.24;101520.53;5054560;28;45478;-51
2023/09/29 08:37:56;;;;;;;;;3.75;2.75;;;;;21.92;63.16;101522.56;5053235;28;45537;-44
2023/09/29 08:40:21;;;;;;;;;3.00;3.00;;;;;21.87;63.66;101529.66;5054559;28;45447;-47
2023/09/29 08:42:50;;;;;;;;;2.00;1.00;;;;;21.88;63.34;101539.44;5054726;28;45404;-43
2023/09/29 08:45:19;;;;;;;;;6.00;2.00;;;;;21.88;63.44;101540.28;5043029;28;46024;-55
2023/09/29 08:47:51;;;;;;;;;3.00;1.20;;;;;21.86;63.09;101547.75;5053504;28;46337;-52
2023/09/29 08:50:17;;;;;;;;;3.20;1.00;;;;;21.84;63.10;101560.69;5053201;28;45501;-50
2023/09/29 08:52:49;;;;;;;;;0.20;0.00;;;;;21.77;62.60;101545.41;5048602;28;45507;-48
2023/09/29 08:55:16;;;;;;;;;3.00;0.00;;;;;21.76;62.10;101546.47;5035902;28;45486;-53
2023/09/29 08:57:42;;;;;;;;;1.20;0.00;;;;;21.82;61.90;101548.34;5053860;28;46974;-52
2023/09/29 09:00:14;;;;;;;;;1.40;0.00;;;;;22.05;61.64;101570.56;5053593;28;45392;-49
2023/09/29 09:02:41;;;;;;;;;2.80;0.40;;;;;22.29;60.41;101557.53;5051084;28;45467;-50
2023/09/29 09:05:10;;;;;;;;;2.20;1.00;;;;;22.49;60.13;101561.13;5053761;28;45459;-43
2023/09/29 09:07:43;;;;;;;;;0.00;0.00;;;;;22.51;59.64;101567.19;5053464;28;46369;-51
2023/09/29 09:10:10;;;;;;;;;2.20;1.00;;;;;22.62;59.24;101571.16;5052217;28;45475;-49
2023/09/29 09:12:37;;;;;;;;;0.00;0.00;;;;;22.80;58.89;101578.72;5031899;28;45444;-55
2023/09/29 09:15:04;;;;;;;;;4.80;0.00;;;;;22.85;59.14;101587.91;5052883;28;45502;-46
2023/09/29 09:17:34;;;;;;;;;1.40;0.00;;;;;22.87;59.10;101590.38;5052294;28;46333;-52
2023/09/29 09:20:00;;;;;;;;;2.00;1.00;;;;;22.77;58.39;101596.22;5052599;28;46844;-53
2023/09/29 09:22:31;;;;;;;;;1.80;0.40;;;;;22.82;58.08;101599.16;5042150;28;45617;-44
2023/09/29 09:25:04;;;;;;;;;2.60;0.60;;;;;22.90;57.61;101617.97;5041556;28;45463;-50
2023/09/29 09:27:38;;;;;;;;;0.00;0.00;;;;;23.02;57.64;101601.09;5022331;28;45557;-45
2023/09/29 09:30:04;;;;;;;;;1.20;0.40;;;;;23.02;57.36;101599.22;5042936;28;46396;-46
2023/09/29 09:32:30;;;;;;;;;0.20;0.20;;;;;23.04;57.59;101624.25;5041013;28;45533;-52
2023/09/29 09:34:57;;;;;;;;;1.20;0.00;;;;;22.94;57.40;101623.00;5047712;28;45474;-43
2023/09/29 09:37:27;;;;;;;;;0.00;0.00;;;;;22.91;58.19;101632.38;5066536;28;46086;-54
2023/09/29 09:39:59;;;;;;;;;0.00;0.00;;;;;22.79;58.25;101632.09;5059972;28;45658;-50
2023/09/29 09:42:26;;;;;;;;;0.60;0.00;;;;;22.84;57.78;101643.19;5053793;28;45844;-54
2023/09/29 09:44:58;;;;;;;;;0.00;0.00;;;;;22.78;58.29;101648.59;5073088;28;45637;-49
2023/09/29 09:47:27;;;;;;;;;0.80;0.00;;;;;22.65;58.86;101647.53;5072329;27;46038;-52
2023/09/29 09:49:57;;;;;;;;;2.20;1.00;;;;;22.58;59.46;101659.38;5054862;28;45440;-46
2023/09/29 09:52:30;;;;;;;;;0.60;0.00;;;;;22.53;59.95;101662.72;5053936;28;45500;-53
2023/09/29 09:54:58;;;;;;;;;1.80;0.60;;;;;22.57;59.92;101669.41;5053893;28;45441;-44
2023/09/29 09:57:34;;;;;;;;;2.60;0.60;;;;;22.62;59.84;101677.75;5059528;28;45966;-51
2023/09/29 10:00:08;;;;;;;;;1.60;1.00;;;;;22.74;59.25;101677.19;5072117;27;45728;-52
2023/09/29 10:02:43;;;;;;;;;0.40;0.00;;;;;22.72;58.49;101679.28;5073246;28;45466;-55
2023/09/29 10:05:16;;;;;;;;;0.60;0.00;;;;;22.60;58.26;101679.84;5069813;28;45604;-50
2023/09/29 10:08:01;;;;;;;;;0.00;0.00;;;;;22.48;58.62;101678.75;5040846;28;46252;-52
2023/09/29 10:10:47;;;;;;;;;3.00;0.20;;;;;22.45;58.71;101675.59;5054704;28;45490;-46
2023/09/29 10:13:14;;;;;;;;;2.80;1.00;;;;;22.44;58.93;101685.63;5054915;28;45462;-54
2023/09/29 10:15:41;;;;;;;;;1.80;1.20;;;;;22.46;58.91;101688.97;5037815;28;45715;-50
2023/09/29 10:18:20;;;;;;;;;1.80;0.40;;;;;22.48;58.31;101700.44;5055333;28;47188;-50
2023/09/29 10:20:54;;;;;;;;;0.00;0.00;;;;;22.48;57.68;101686.88;5055213;28;45458;-53
2023/09/29 10:23:20;;;;;;;;;3.20;1.60;;;;;22.58;57.59;101700.91;5055579;28;45369;-54
2023/09/29 10:25:59;;;;;;;;;2.25;0.00;;;;;22.54;57.49;101715.91;5055709;28;45402;-50
2023/09/29 10:28:35;;;;;;;;;3.00;1.60;;;;;22.47;57.65;101720.47;5055469;28;46090;-52
2023/09/29 10:31:15;;;;;;;;;1.80;1.60;;;;;22.41;58.22;101727.50;5054825;28;45397;-51
2023/09/29 10:33:53;;;;;;;;;1.40;1.40;;;;;22.19;57.86;101700.72;5055655;28;45256;-52
2023/09/29 10:36:20;;;;;;;;;0.80;0.80;;;;;22.29;57.91;101729.16;5055601;28;45382;-51
2023/09/29 10:38:47;;;;;;;;;0.60;0.60;;;;;22.37;57.60;101728.97;5052166;28;46539;-43
2023/09/29 10:41:14;;;;;;;;;0.80;0.80;;;;;22.48;57.41;101737.56;5055390;28;45347;-46
2023/09/29 10:43:43;;;;;;;;;4.40;1.00;;;;;22.72;56.82;101736.22;5055769;28;45547;-52
2023/09/29 10:46:09;;;;;;;;;1.80;1.00;;;;;22.88;55.98;101717.72;5055295;28;45374;-51
2023/09/29 10:48:46;;;;;;;;;3.00;1.00;;;;;23.21;55.80;101735.97;5055181;28;45474;-54
2023/09/29 10:51:30;;;;;;;;;2.40;1.40;;;;;23.38;55.09;101728.25;5055189;28;45459;-54
2023/09/29 10:54:06;;;;;;;;;5.60;1.20;;;;;23.58;54.04;101739.97;5055405;28;45343;-52
2023/09/29 10:56:33;;;;;;;;;0.60;0.60;;;;;23.61;53.79;101730.59;5055236;28;45784;-52
2023/09/29 10:58:59;;;;;;;;;3.40;2.00;;;;;23.73;53.73;101734.38;5052536;28;45518;-54
2023/09/29 11:01:31;;;;;;;;;6.25;2.50;;;;;24.12;53.23;101713.63;5055536;28;45453;-49
2023/09/29 11:03:57;;;;;;;;;2.40;2.40;;;;;24.60;52.98;101733.13;5054956;28;46141;-50
2023/09/29 11:06:22;;;;;;;;;3.25;1.00;;;;;24.79;51.01;101742.28;5055658;28;45302;-53
2023/09/29 11:08:58;;;;;;;;;2.50;2.00;;;;;24.81;51.73;101744.78;5054705;28;45421;-51
2023/09/29 11:11:35;;;;;;;;;1.80;1.00;;;;;25.16;50.20;101747.13;5055169;28;45401;-50
2023/09/29 11:14:02;;;;;;;;;3.40;1.00;;;;;26.10;47.69;101744.28;5055147;28;45261;-51
2023/09/29 11:16:28;;;;;;;;;5.00;2.00;;;;;26.12;47.65;101744.91;5054383;28;45399;-47
2023/09/29 11:19:06;;;;;;;;;4.75;1.00;;;;;26.52;46.71;101686.34;5054497;28;46030;-50
2023/09/29 11:21:36;;;;;;;;;2.00;1.60;;;;;27.34;44.33;101722.13;5054882;28;45358;-45
2023/09/29 11:24:18;;;;;;;;;4.60;2.00;;;;;26.88;46.09;101753.66;5054912;28;45380;-52